Time;durP1;ratioP1;P1;durP2;ratioP2;P2;SDS_P1;SDS_P2;PMS_P1;PMS_P2;Temp;Humidity;BMP_temperature;BMP_pressure;BME280_temperature;BME280_humidity;BME280_pressure;Samples;Min_cycle;Max_cycle;Signal;HPM_P1;HPM_P2
2024/03/12 00:02:00;;;;;;;2.15;1.95;;;9.50;59.70;;;4.50;100.00;95172.56;5001728;28;20018;-50
2024/03/12 00:04:29;;;;;;;3.22;1.80;;;9.50;59.80;;;4.53;100.00;95170.25;5008849;28;20025;-49
2024/03/12 00:06:55;;;;;;;3.53;2.00;;;9.50;59.80;;;4.49;100.00;95177.03;5004619;28;20030;-48
2024/03/12 00:09:22;;;;;;;2.83;1.70;;;9.40;59.80;;;4.48;100.00;95172.81;5006503;28;20101;-52
2024/03/12 00:11:48;;;;;;;3.17;1.90;;;9.30;59.80;;;4.44;100.00;95174.28;5010938;28;20502;-52
2024/03/12 00:14:14;;;;;;;1.73;1.60;;;9.30;59.90;;;4.38;100.00;95170.75;4995935;28;20483;-47
2024/03/12 00:16:40;;;;;;;2.72;1.70;;;9.20;59.90;;;4.34;100.00;95174.09;5003290;28;20039;-47
2024/03/12 00:19:09;;;;;;;4.85;2.10;;;9.20;60.70;;;4.24;100.00;95177.34;5008921;28;20112;-55
2024/03/12 00:21:37;;;;;;;2.40;2.20;;;9.10;60.10;;;4.16;100.00;95177.72;5004037;28;20173;-49
2024/03/12 00:24:06;;;;;;;2.92;2.10;;;9.00;60.10;;;4.02;100.00;95190.38;5005472;28;20026;-50
2024/03/12 00:26:32;;;;;;;3.50;2.40;;;9.00;60.30;;;4.02;100.00;95189.56;5003540;28;20029;-47
2024/03/12 00:28:59;;;;;;;3.97;2.05;;;8.90;60.40;;;4.03;100.00;95191.16;5001258;28;20025;-51
2024/03/12 00:31:25;;;;;;;4.15;2.10;;;8.90;60.60;;;3.94;100.00;95186.25;5012811;28;21521;-50
2024/03/12 00:33:50;;;;;;;4.03;2.20;;;8.90;60.80;;;3.92;100.00;95188.31;5002982;28;20029;-47
2024/03/12 00:36:16;;;;;;;2.47;1.90;;;8.90;60.90;;;4.02;100.00;95186.94;5009940;28;20082;-47
2024/03/12 00:38:42;;;;;;;3.25;2.00;;;8.80;61.00;;;4.02;100.00;95193.00;5009417;28;20017;-47
2024/03/12 00:41:08;;;;;;;3.90;2.95;;;8.90;61.20;;;4.03;100.00;95194.59;5009260;28;20106;-47
2024/03/12 00:43:35;;;;;;;2.75;2.30;;;8.80;61.30;;;4.10;100.00;95202.38;5009277;28;20029;-47
2024/03/12 00:46:02;;;;;;;3.70;2.28;;;8.90;61.40;;;4.14;100.00;95206.16;5013457;28;20040;-50
2024/03/12 00:48:28;;;;;;;4.55;2.30;;;8.90;61.50;;;4.17;100.00;95206.50;5001011;28;20029;-47
2024/03/12 00:50:55;;;;;;;3.22;2.40;;;9.00;61.60;;;4.21;100.00;95201.56;4986374;28;20021;-50
2024/03/12 00:53:21;;;;;;;3.65;2.40;;;9.00;62.50;;;4.27;100.00;95207.72;4991326;28;20025;-52
2024/03/12 00:55:47;;;;;;;2.60;2.30;;;9.00;61.80;;;4.30;100.00;95209.91;5010342;28;20431;-48
2024/03/12 00:58:15;;;;;;;3.42;2.40;;;9.10;61.90;;;4.33;100.00;95212.88;5002917;28;20057;-49
2024/03/12 01:00:41;;;;;;;2.97;2.38;;;9.10;61.90;;;4.35;100.00;95208.13;5009747;28;20036;-49
2024/03/12 01:03:11;;;;;;;5.10;2.35;;;9.20;62.00;;;4.36;100.00;95209.75;5000528;28;20044;-49
2024/03/12 01:05:37;;;;;;;4.40;2.55;;;9.20;62.00;;;4.40;100.00;95210.09;5009654;28;20090;-54
2024/03/12 01:08:11;;;;;;;5.30;2.40;;;9.20;62.00;;;4.40;100.00;95204.81;5007378;28;20029;-48
2024/03/12 01:10:39;;;;;;;3.00;2.40;;;9.20;62.10;;;4.44;100.00;95213.06;5013417;28;20021;-49
2024/03/12 01:13:06;;;;;;;2.75;2.40;;;9.30;62.20;;;4.49;100.00;95215.81;5001843;28;20029;-49
2024/03/12 01:15:32;;;;;;;2.22;1.95;;;9.30;62.20;;;4.50;100.00;95212.91;5004335;28;20466;-49
2024/03/12 01:17:58;;;;;;;6.13;2.20;;;9.40;62.20;;;4.55;100.00;95217.50;5006047;28;20031;-47
2024/03/12 01:20:26;;;;;;;2.75;2.22;;;9.40;62.30;;;4.60;100.00;95212.31;5004997;28;20029;-48
2024/03/12 01:22:57;;;;;;;2.20;1.98;;;9.40;62.40;;;4.61;100.00;95217.34;5010270;28;20032;-48
2024/03/12 01:25:24;;;;;;;3.40;2.17;;;9.40;62.40;;;4.63;100.00;95220.53;5004416;28;20034;-47
2024/03/12 01:27:55;;;;;;;2.10;1.90;;;9.50;62.40;;;4.66;100.00;95219.28;5006232;28;20038;-48
2024/03/12 01:30:26;;;;;;;2.85;1.90;;;9.50;62.40;;;4.65;100.00;95222.97;5008901;28;20028;-47
2024/03/12 01:32:54;;;;;;;2.50;2.22;;;9.50;62.80;;;4.61;100.00;95227.91;5003491;28;20036;-49
2024/03/12 01:35:20;;;;;;;3.45;2.40;;;9.50;62.40;;;4.62;100.00;95221.59;5008877;28;20075;-47
2024/03/12 01:37:51;;;;;;;2.50;2.30;;;9.50;62.40;;;4.62;100.00;95229.50;5002705;28;20113;-47
2024/03/12 01:40:27;;;;;;;2.08;1.88;;;9.40;62.40;;;4.60;100.00;95221.00;4986503;28;20206;-53
2024/03/12 01:43:09;;;;;;;2.70;2.10;;;9.40;62.40;;;4.58;100.00;95222.31;4986704;28;20033;-48
2024/03/12 01:45:35;;;;;;;2.45;2.05;;;9.40;62.50;;;4.56;100.00;95219.09;4985494;28;20029;-49
2024/03/12 01:48:09;;;;;;;2.83;2.50;;;9.40;62.40;;;4.54;100.00;95226.44;4986827;28;20104;-48
2024/03/12 01:50:37;;;;;;;3.72;2.78;;;9.40;62.60;;;4.50;100.00;95223.47;4987742;28;20393;-47
2024/03/12 01:53:07;;;;;;;4.30;2.60;;;9.30;62.50;;;4.47;100.00;95223.94;4984760;28;20018;-46
2024/03/12 01:55:37;;;;;;;4.13;2.38;;;9.40;62.70;;;4.47;100.00;95226.56;4989651;28;20037;-52
2024/03/12 01:58:04;;;;;;;3.30;2.55;;;9.30;62.70;;;4.46;100.00;95229.47;4987474;28;20030;-47
2024/03/12 02:00:32;;;;;;;3.10;2.60;;;9.40;62.90;;;4.48;100.00;95227.38;4988972;28;20025;-49
2024/03/12 02:02:59;;;;;;;3.42;2.33;;;9.30;62.80;;;4.51;100.00;95226.91;4986096;28;20044;-49
2024/03/12 02:05:26;;;;;;;4.05;2.20;;;9.40;62.90;;;4.51;100.00;95235.63;4990350;28;20092;-47
2024/03/12 02:07:53;;;;;;;3.22;2.40;;;9.40;63.00;;;4.50;100.00;95241.13;4986413;28;20022;-48
2024/03/12 02:10:20;;;;;;;2.80;2.22;;;9.40;63.00;;;4.55;100.00;95239.41;4989079;28;20072;-50
2024/03/12 02:12:47;;;;;;;3.80;2.58;;;9.40;63.00;;;4.58;100.00;95236.28;4988588;28;20022;-48
2024/03/12 02:15:20;;;;;;;3.75;2.30;;;9.40;63.10;;;4.61;100.00;95235.81;4988535;28;20051;-47
2024/03/12 02:17:48;;;;;;;4.45;2.60;;;9.50;63.10;;;4.64;100.00;95240.63;4988175;28;20495;-48
2024/03/12 02:20:14;;;;;;;3.63;2.50;;;9.50;63.10;;;4.63;100.00;95238.22;4980974;28;20033;-48
2024/03/12 02:22:40;;;;;;;3.28;2.05;;;9.50;63.10;;;4.65;100.00;95249.34;4987603;28;20395;-46
2024/03/12 02:25:11;;;;;;;3.10;2.25;;;9.50;63.10;;;4.68;100.00;95248.88;4990068;28;20026;-47
2024/03/12 02:27:39;;;;;;;3.47;2.33;;;9.50;63.10;;;4.68;100.00;95251.50;4986337;28;20017;-48
2024/03/12 02:30:08;;;;;;;6.32;2.35;;;9.50;63.10;;;4.69;100.00;95255.75;4989752;28;20029;-55
2024/03/12 02:32:34;;;;;;;2.97;2.08;;;9.50;63.10;;;4.70;100.00;95248.63;4985398;28;20369;-53
2024/03/12 02:35:00;;;;;;;4.05;2.40;;;9.50;63.10;;;4.71;100.00;95253.69;4987166;28;20025;-47
2024/03/12 02:37:26;;;;;;;2.92;2.40;;;9.60;63.10;;;4.70;100.00;95251.25;4987386;28;20028;-49
2024/03/12 02:39:51;;;;;;;4.63;2.40;;;9.60;63.20;;;4.73;100.00;95259.53;4997619;28;20056;-47
2024/03/12 02:42:17;;;;;;;2.63;2.08;;;9.60;63.10;;;4.76;100.00;95256.41;5003912;28;20021;-47
2024/03/12 02:44:43;;;;;;;2.05;1.85;;;9.60;63.20;;;4.73;100.00;95258.72;5009984;28;20025;-47
2024/03/12 02:47:09;;;;;;;3.75;2.65;;;9.60;63.10;;;4.77;100.00;95262.50;5005891;28;20071;-51
2024/03/12 02:49:38;;;;;;;5.47;2.40;;;9.60;63.10;;;4.74;100.00;95261.13;5008544;28;20025;-50
2024/03/12 02:52:04;;;;;;;2.28;1.80;;;9.60;63.10;;;4.69;100.00;95258.38;5003768;28;20021;-53
2024/03/12 02:54:30;;;;;;;2.45;2.00;;;9.60;63.10;;;4.72;100.00;95260.56;5008894;28;20068;-48
2024/03/12 02:56:56;;;;;;;2.28;1.77;;;9.60;63.10;;;4.68;100.00;95262.06;5007482;28;20049;-48
2024/03/12 02:59:27;;;;;;;4.43;2.30;;;9.60;63.10;;;4.69;100.00;95260.22;5004895;28;20033;-48
2024/03/12 03:01:52;;;;;;;2.55;1.90;;;9.60;63.10;;;4.59;100.00;95261.63;5006392;28;20037;-47
2024/03/12 03:04:21;;;;;;;3.78;2.10;;;9.60;63.10;;;4.62;100.00;95268.28;5005087;28;20033;-50
2024/03/12 03:06:50;;;;;;;2.45;1.67;;;9.50;63.00;;;4.59;100.00;95266.09;5005219;28;20040;-49
2024/03/12 03:09:16;;;;;;;2.45;2.00;;;9.50;63.00;;;4.58;100.00;95270.59;5005323;28;20395;-47
2024/03/12 03:11:42;;;;;;;3.00;1.95;;;9.50;63.00;;;4.49;100.00;95271.19;5006658;28;20023;-47
2024/03/12 03:14:08;;;;;;;2.67;2.20;;;9.40;62.90;;;4.46;100.00;95267.19;5005351;28;20383;-51
2024/03/12 03:16:34;;;;;;;2.92;2.15;;;9.30;63.00;;;4.41;100.00;95267.88;5005109;28;20476;-56
2024/03/12 03:18:59;;;;;;;2.70;2.10;;;9.30;63.00;;;4.35;100.00;95268.78;5006338;28;20383;-50
2024/03/12 03:21:25;;;;;;;3.63;2.17;;;9.30;63.20;;;4.27;100.00;95269.16;5005993;28;20091;-49
2024/03/12 03:23:52;;;;;;;4.10;2.35;;;9.20;64.00;;;4.29;100.00;95271.56;5001221;28;20021;-49
2024/03/12 03:26:18;;;;;;;3.17;2.70;;;9.20;63.30;;;4.32;100.00;95273.72;5006170;28;20028;-50
2024/03/12 03:28:45;;;;;;;3.33;2.30;;;9.20;63.40;;;4.32;100.00;95274.53;5007766;28;20087;-51
2024/03/12 03:31:11;;;;;;;3.53;2.40;;;9.20;63.60;;;4.30;100.00;95273.19;5002222;28;20021;-48
2024/03/12 03:33:45;;;;;;;5.57;2.30;;;9.20;63.60;;;4.31;100.00;95274.78;5008441;28;20020;-48
2024/03/12 03:36:13;;;;;;;3.33;2.13;;;9.20;63.70;;;4.20;100.00;95265.88;5001794;28;20090;-47
2024/03/12 03:38:40;;;;;;;3.03;2.13;;;9.10;63.60;;;4.20;100.00;95271.13;5005675;28;20498;-47
2024/03/12 03:41:10;;;;;;;3.03;2.28;;;9.10;63.60;;;4.14;100.00;95270.22;5008740;28;20025;-50
2024/03/12 03:43:36;;;;;;;3.22;2.45;;;9.10;63.70;;;4.18;100.00;95274.00;5010446;28;20420;-48
2024/03/12 03:46:03;;;;;;;6.00;2.35;;;9.10;63.70;;;4.18;100.00;95274.00;5013588;28;20090;-48
2024/03/12 03:48:29;;;;;;;3.65;1.90;;;9.00;63.70;;;4.15;100.00;95271.81;5011347;28;20025;-49
2024/03/12 03:50:56;;;;;;;3.75;2.72;;;9.00;63.80;;;4.10;100.00;95276.19;5011932;28;20037;-48
2024/03/12 03:53:22;;;;;;;4.22;2.50;;;9.00;63.70;;;4.13;100.00;95281.00;5011372;28;20029;-49
2024/03/12 03:55:49;;;;;;;2.20;1.90;;;9.00;63.80;;;4.12;100.00;95279.41;5002010;28;20417;-52
2024/03/12 03:58:15;;;;;;;3.30;1.98;;;9.00;63.80;;;4.04;100.00;95279.72;5009791;28;20082;-54
2024/03/12 04:00:41;;;;;;;5.05;2.30;;;9.00;63.80;;;4.08;100.00;95281.69;5011518;28;20049;-51
2024/03/12 04:03:06;;;;;;;2.58;2.15;;;9.00;63.90;;;4.10;100.00;95271.69;5011109;28;20052;-47
2024/03/12 04:05:33;;;;;;;4.00;2.20;;;9.00;64.00;;;4.11;100.00;95283.88;5011566;28;20057;-47
2024/03/12 04:08:01;;;;;;;2.70;2.20;;;9.00;64.10;;;4.13;100.00;95286.25;5008916;28;20024;-50
2024/03/12 04:10:27;;;;;;;4.20;2.15;;;9.00;64.30;;;4.16;100.00;95283.97;5008465;28;20074;-54
2024/03/12 04:12:55;;;;;;;3.60;1.90;;;9.00;64.30;;;4.22;100.00;95284.88;5012059;28;20021;-47
2024/03/12 04:15:22;;;;;;;4.05;2.40;;;9.00;65.10;;;4.26;100.00;95290.47;5004959;28;20463;-47
2024/03/12 04:17:49;;;;;;;4.10;2.30;;;9.00;64.40;;;4.27;100.00;95286.84;5010630;28;20032;-49
2024/03/12 04:20:16;;;;;;;2.00;1.80;;;9.10;64.40;;;4.30;100.00;95295.06;5012894;28;20029;-48
2024/03/12 04:22:45;;;;;;;2.50;1.85;;;9.10;64.40;;;4.29;100.00;95296.09;5004723;28;20021;-49
2024/03/12 04:25:13;;;;;;;3.63;1.92;;;9.20;64.30;;;4.29;100.00;95303.22;5007858;28;20029;-50
2024/03/12 04:27:39;;;;;;;2.50;2.03;;;9.10;64.20;;;4.23;100.00;95310.22;5004917;28;20037;-49
2024/03/12 04:30:11;;;;;;;4.47;2.15;;;9.10;64.10;;;4.22;100.00;95318.34;5006401;28;20091;-52
2024/03/12 04:32:39;;;;;;;3.25;2.20;;;9.10;64.20;;;4.24;100.00;95306.53;5010146;28;20071;-50
2024/03/12 04:35:09;;;;;;;4.55;2.10;;;9.10;64.20;;;4.25;100.00;95316.06;5010210;28;20116;-51
2024/03/12 04:37:36;;;;;;;3.45;2.00;;;9.10;64.20;;;4.27;100.00;95319.28;5009803;28;20025;-50
2024/03/12 04:40:07;;;;;;;3.58;2.05;;;9.10;64.30;;;4.27;100.00;95315.84;5043893;23;20062;-57
2024/03/12 04:42:38;;;;;;;2.13;1.88;;;9.10;64.30;;;4.29;100.00;95325.09;5048285;28;20450;-58
2024/03/12 04:45:06;;;;;;;2.80;2.25;;;9.10;64.30;;;4.27;100.00;95315.84;5051354;28;20111;-56
2024/03/12 04:47:34;;;;;;;4.57;3.10;;;9.20;64.30;;;4.28;100.00;95327.97;5050844;28;20036;-57
2024/03/12 04:49:59;;;;;;;4.35;2.60;;;9.10;64.20;;;4.30;100.00;95323.28;5042168;28;20394;-55
2024/03/12 04:52:25;;;;;;;2.90;2.17;;;9.20;64.30;;;4.29;100.00;95332.22;5035175;28;20028;-58
2024/03/12 04:54:51;;;;;;;3.22;2.20;;;9.10;64.20;;;4.26;100.00;95330.88;5025697;28;20037;-58
2024/03/12 04:57:17;;;;;;;5.50;2.15;;;9.10;64.20;;;4.24;100.00;95332.13;5035204;28;20109;-57
2024/03/12 04:59:43;;;;;;;2.67;2.20;;;9.10;64.20;;;4.26;100.00;95336.13;5034442;28;20032;-54
2024/03/12 05:02:09;;;;;;;3.45;2.47;;;9.10;64.30;;;4.24;100.00;95340.81;5033911;28;20087;-56
2024/03/12 05:04:35;;;;;;;3.30;2.72;;;9.10;64.40;;;4.27;100.00;95339.56;5028687;28;20429;-57
2024/03/12 05:07:00;;;;;;;4.47;2.40;;;9.10;64.50;;;4.25;100.00;95342.41;5028333;28;20040;-56
2024/03/12 05:09:26;;;;;;;3.83;2.30;;;9.10;64.50;;;4.32;100.00;95348.38;5028707;28;20053;-57
2024/03/12 05:11:53;;;;;;;6.78;2.45;;;9.10;64.60;;;4.36;100.00;95348.72;5027379;28;20021;-54
2024/03/12 05:14:19;;;;;;;5.00;2.20;;;9.10;64.50;;;4.39;100.00;95356.19;5027771;28;20037;-58
2024/03/12 05:16:46;;;;;;;5.60;2.55;;;9.20;64.60;;;4.43;100.00;95352.03;5029926;28;20093;-58
2024/03/12 05:19:12;;;;;;;2.72;2.28;;;9.20;64.60;;;4.49;100.00;95348.47;5027706;28;20021;-57
2024/03/12 05:21:38;;;;;;;3.97;2.38;;;9.20;64.60;;;4.52;100.00;95361.22;5029362;28;20021;-56
2024/03/12 05:24:05;;;;;;;3.22;2.50;;;9.30;64.70;;;4.54;100.00;95363.59;5025640;28;20109;-54
2024/03/12 05:26:32;;;;;;;3.22;2.40;;;9.30;64.60;;;4.58;100.00;95364.75;5029216;28;20033;-58
2024/03/12 05:28:58;;;;;;;3.20;2.38;;;9.30;64.50;;;4.61;100.00;95370.38;5029413;28;20494;-57
2024/03/12 05:31:32;;;;;;;2.97;2.10;;;9.30;64.40;;;4.62;100.00;95368.53;5028344;28;20044;-58
2024/03/12 05:34:01;;;;;;;3.45;2.38;;;9.30;64.40;;;4.63;100.00;95378.03;5046524;28;20138;-58
2024/03/12 05:36:40;;;;;;;3.80;2.22;;;9.30;64.30;;;4.63;100.00;95384.13;5028026;28;20025;-58
2024/03/12 05:39:18;;;;;;;2.67;2.00;;;9.30;64.30;;;4.64;100.00;95387.59;5029054;28;20081;-58
2024/03/12 05:49:57;;;;;;;5.82;2.50;;;9.40;64.10;;;4.69;100.00;95392.16;5028333;28;20090;-56
2024/03/12 05:52:23;;;;;;;3.60;2.50;;;9.40;64.00;;;4.69;100.00;95395.59;5029152;28;20028;-58
2024/03/12 05:54:51;;;;;;;4.53;2.55;;;9.40;64.00;;;4.70;100.00;95404.31;5028948;28;20029;-55
2024/03/12 05:57:18;;;;;;;6.10;3.17;;;9.40;64.00;;;4.71;100.00;95396.16;5029640;28;20032;-55
2024/03/12 05:59:44;;;;;;;5.05;2.70;;;9.50;64.00;;;4.71;100.00;95393.53;5026576;28;20036;-58
2024/03/12 06:02:09;;;;;;;3.58;2.55;;;9.50;64.00;;;4.75;100.00;95393.88;5028766;28;20659;-58
2024/03/12 06:04:35;;;;;;;3.20;2.80;;;9.50;64.00;;;4.73;100.00;95401.19;5027951;28;20068;-58
2024/03/12 06:07:01;;;;;;;4.60;3.15;;;9.50;63.90;;;4.74;100.00;95393.06;5027454;28;20017;-57
2024/03/12 06:09:28;;;;;;;4.65;3.10;;;9.50;63.90;;;4.77;100.00;95397.09;5043299;28;20020;-58
2024/03/12 06:11:55;;;;;;;4.22;3.33;;;9.60;63.90;;;4.79;100.00;95397.63;5025451;28;20656;-56
2024/03/12 06:14:25;;;;;;;6.28;3.50;;;9.60;64.00;;;4.78;100.00;95406.59;5028308;28;20036;-54
2024/03/12 06:16:51;;;;;;;6.68;3.58;;;9.60;64.00;;;4.82;100.00;95408.53;5027682;28;20028;-56
2024/03/12 06:19:19;;;;;;;6.32;3.70;;;9.60;63.90;;;4.85;100.00;95418.63;5028603;28;20028;-54
2024/03/12 06:21:45;;;;;;;4.80;3.67;;;9.70;63.90;;;4.85;100.00;95415.97;5026746;28;20438;-57
2024/03/12 06:24:10;;;;;;;4.25;3.85;;;9.70;63.90;;;4.87;100.00;95421.03;5029632;28;20082;-58
2024/03/12 06:26:36;;;;;;;5.15;3.80;;;9.70;63.90;;;4.91;100.00;95427.44;5026579;28;20024;-59
2024/03/12 06:29:02;;;;;;;8.52;3.72;;;9.80;64.00;;;4.95;100.00;95419.88;5028663;28;20083;-54
2024/03/12 06:31:29;;;;;;;6.82;3.55;;;9.80;63.90;;;4.96;100.00;95429.41;5026618;28;20024;-58
2024/03/12 06:33:55;;;;;;;5.43;4.20;;;9.80;63.90;;;5.01;100.00;95432.13;5030203;28;20025;-56
2024/03/12 06:36:20;;;;;;;6.22;4.15;;;9.80;63.80;;;5.03;100.00;95432.72;5026400;28;20502;-56
2024/03/12 06:38:48;;;;;;;4.22;3.80;;;9.90;63.90;;;5.06;100.00;95445.44;5028343;28;20020;-57
2024/03/12 06:41:14;;;;;;;4.72;4.05;;;9.90;63.80;;;5.07;100.00;95450.50;5030135;28;20481;-58
2024/03/12 06:43:40;;;;;;;8.45;4.57;;;9.90;63.80;;;5.10;100.00;95447.38;5028237;28;20458;-58
2024/03/12 06:46:16;;;;;;;11.50;4.80;;;9.90;63.80;;;5.15;100.00;95448.53;5027761;28;20115;-58
2024/03/12 06:48:43;;;;;;;4.40;3.70;;;10.00;63.80;;;5.18;100.00;95450.72;5025712;28;20028;-57
2024/03/12 06:51:09;;;;;;;8.65;4.10;;;10.00;63.70;;;5.20;100.00;95452.09;5025150;28;20029;-57
2024/03/12 06:53:35;;;;;;;5.20;4.10;;;10.10;63.70;;;5.25;100.00;95456.66;5025967;28;21422;-55
2024/03/12 06:56:05;;;;;;;8.02;4.50;;;10.10;63.60;;;5.29;100.00;95461.22;5028146;28;20081;-58
2024/03/12 06:58:31;;;;;;;7.43;4.55;;;10.10;63.60;;;5.28;100.00;95472.84;5027631;28;20271;-58
2024/03/12 07:00:58;;;;;;;7.05;4.07;;;10.20;63.60;;;5.30;100.00;95475.25;5024687;28;20051;-58
2024/03/12 07:03:27;;;;;;;5.05;4.15;;;10.20;63.50;;;5.36;100.00;95478.78;5028883;28;20025;-56
2024/03/12 07:05:54;;;;;;;7.50;4.32;;;10.20;63.50;;;5.38;100.00;95476.72;5042334;28;20050;-58
2024/03/12 07:08:25;;;;;;;9.30;4.65;;;10.20;63.50;;;5.40;100.00;95487.88;5011668;28;20467;-57
2024/03/12 07:10:51;;;;;;;5.53;4.10;;;10.30;63.50;;;5.40;100.00;95485.22;5025158;28;20037;-58
2024/03/12 07:13:20;;;;;;;5.47;4.35;;;10.20;63.40;;;5.39;100.00;95486.25;5027070;28;20025;-55
2024/03/12 07:15:48;;;;;;;7.63;4.00;;;10.20;63.50;;;5.29;100.00;95487.63;5026821;28;20029;-58
2024/03/12 07:18:14;;;;;;;5.95;3.75;;;10.20;63.50;;;5.35;100.00;95491.19;5027864;28;20150;-56
2024/03/12 07:20:40;;;;;;;4.70;3.40;;;10.20;63.50;;;5.35;100.00;95499.13;5025455;28;20021;-57
2024/03/12 07:23:06;;;;;;;5.90;3.67;;;10.20;63.60;;;5.32;100.00;95500.38;5025891;28;20089;-55
2024/03/12 07:25:33;;;;;;;6.28;3.30;;;10.20;63.70;;;5.31;100.00;95501.44;5027883;28;20028;-54
2024/03/12 07:28:05;;;;;;;3.58;2.95;;;10.20;63.80;;;5.36;100.00;95506.03;5027004;28;20024;-55
2024/03/12 07:30:35;;;;;;;3.45;2.90;;;10.20;63.80;;;5.33;100.00;95503.84;5024401;28;20077;-58
2024/03/12 07:33:03;;;;;;;3.40;2.60;;;10.20;63.90;;;5.29;100.00;95506.13;5025385;28;20392;-58
2024/03/12 07:35:30;;;;;;;3.83;2.88;;;10.30;63.90;;;5.24;100.00;95505.25;5027580;28;20070;-57
2024/03/12 07:37:56;;;;;;;5.53;2.97;;;10.30;63.90;;;5.21;100.00;95501.22;5027464;28;20597;-57
2024/03/12 07:40:22;;;;;;;3.65;3.13;;;10.30;63.90;;;5.27;100.00;95510.84;5027324;28;20789;-58
2024/03/12 07:42:49;;;;;;;3.75;3.00;;;10.30;63.90;;;5.27;100.00;95512.69;5024982;28;20021;-58
2024/03/12 07:45:16;;;;;;;7.15;3.17;;;10.30;64.00;;;5.24;100.00;95508.69;5026479;28;20092;-57
2024/03/12 07:47:43;;;;;;;7.82;3.22;;;10.30;64.20;;;5.28;100.00;95509.81;5019577;28;20021;-54
2024/03/12 07:50:13;;;;;;;3.90;3.17;;;10.30;64.20;;;5.26;100.00;95522.44;5028709;28;20029;-56
2024/03/12 07:52:39;;;;;;;5.32;3.58;;;10.40;64.30;;;5.32;100.00;95516.22;5023989;28;20074;-58
2024/03/12 07:55:06;;;;;;;3.70;3.25;;;10.40;64.40;;;5.31;100.00;95519.91;5028415;28;20025;-56
2024/03/12 07:57:32;;;;;;;3.45;3.15;;;10.50;64.40;;;5.36;100.00;95527.16;5022303;28;20457;-57
2024/03/12 07:59:59;;;;;;;3.50;3.20;;;10.50;64.30;;;5.42;100.00;95531.50;5028600;28;20025;-56
2024/03/12 08:02:25;;;;;;;4.32;3.20;;;10.50;64.30;;;5.37;100.00;95526.13;5034608;28;20021;-56
2024/03/12 08:04:51;;;;;;;3.75;3.17;;;10.50;64.30;;;5.42;100.00;95536.78;5030530;28;20036;-57
2024/03/12 08:07:19;;;;;;;4.10;2.90;;;10.60;64.40;;;5.38;100.00;95530.34;5032593;28;20028;-58
2024/03/12 08:09:47;;;;;;;3.95;2.90;;;10.60;64.40;;;5.38;100.00;95537.47;5038595;28;20032;-56
2024/03/12 08:12:13;;;;;;;5.22;3.20;;;10.50;64.20;;;5.38;100.00;95538.28;5027463;28;20025;-58
2024/03/12 08:14:40;;;;;;;5.22;3.13;;;10.60;64.30;;;5.42;100.00;95541.25;5032716;28;20451;-56
2024/03/12 08:17:12;;;;;;;5.45;2.80;;;10.50;64.20;;;5.43;100.00;95542.88;5035533;28;20455;-56
2024/03/12 08:19:39;;;;;;;5.65;3.38;;;10.50;64.20;;;5.44;100.00;95541.84;5033202;28;20079;-54
2024/03/12 08:22:08;;;;;;;6.55;3.15;;;10.60;64.30;;;5.38;100.00;95546.19;5039283;28;20476;-57
2024/03/12 08:24:38;;;;;;;3.80;2.90;;;10.60;64.30;;;5.44;100.00;95552.41;5031104;28;20367;-53
2024/03/12 08:27:08;;;;;;;3.17;2.70;;;10.60;64.30;;;5.52;100.00;95554.69;5035774;28;20040;-56
2024/03/12 08:29:34;;;;;;;3.50;3.15;;;10.60;64.20;;;5.52;100.00;95552.06;5029226;28;20029;-51
2024/03/12 08:32:00;;;;;;;3.30;2.60;;;10.60;64.20;;;5.52;100.00;95544.91;5037133;28;20017;-58
2024/03/12 08:34:27;;;;;;;4.78;2.63;;;10.70;64.20;;;5.47;100.00;95547.44;5031973;28;20045;-58
2024/03/12 08:36:55;;;;;;;3.25;2.63;;;10.70;64.30;;;5.52;100.00;95552.06;5037966;28;20055;-57
2024/03/12 08:39:22;;;;;;;4.85;3.20;;;10.70;64.30;;;5.50;100.00;95557.56;5045377;28;20131;-57
2024/03/12 08:41:47;;;;;;;3.58;2.72;;;10.70;64.30;;;5.64;100.00;95560.75;5029291;28;20111;-55
2024/03/12 08:44:14;;;;;;;3.70;2.47;;;10.70;64.20;;;5.66;100.00;95560.50;5027435;28;20473;-50
2024/03/12 08:46:40;;;;;;;5.13;2.80;;;10.80;64.30;;;5.63;100.00;95555.69;5029082;28;20025;-52
2024/03/12 08:49:10;;;;;;;3.00;2.33;;;10.90;64.30;;;5.79;100.00;95563.69;5026606;28;20025;-54
2024/03/12 08:51:38;;;;;;;3.13;2.33;;;10.90;64.20;;;5.82;100.00;95557.13;5029390;28;20032;-53
2024/03/12 08:54:08;;;;;;;3.03;2.20;;;11.00;64.20;;;5.73;100.00;95567.25;5028277;28;20123;-54
2024/03/12 08:56:37;;;;;;;3.42;2.15;;;11.10;64.10;;;5.84;100.00;95560.34;5027071;28;20021;-56
2024/03/12 08:59:08;;;;;;;2.58;2.25;;;11.10;63.90;;;5.95;100.00;95564.81;5027246;28;20024;-53
2024/03/12 09:01:34;;;;;;;5.13;2.42;;;11.10;63.80;;;5.92;100.00;95572.38;5029474;28;20474;-57
2024/03/12 09:04:02;;;;;;;2.53;1.90;;;11.10;63.80;;;5.91;100.00;95571.56;5029554;28;20074;-54
2024/03/12 09:06:28;;;;;;;5.38;2.08;;;11.10;63.70;;;5.94;100.00;95570.34;5026985;28;20024;-52
2024/03/12 09:08:55;;;;;;;3.08;2.22;;;11.10;63.70;;;5.98;100.00;95576.75;5026360;28;20032;-58
2024/03/12 09:11:21;;;;;;;2.42;2.00;;;11.10;63.70;;;5.95;100.00;95572.75;5029194;28;20031;-55
2024/03/12 09:13:47;;;;;;;2.50;1.98;;;11.10;63.60;;;5.94;100.00;95576.44;5028805;28;20017;-57
2024/03/12 09:16:14;;;;;;;3.30;1.70;;;11.00;63.50;;;5.93;100.00;95574.03;5044666;28;20041;-58
2024/03/12 09:18:44;;;;;;;2.10;1.90;;;11.10;63.60;;;5.95;100.00;95572.75;5027214;28;20040;-57
2024/03/12 09:21:12;;;;;;;2.45;1.90;;;11.10;63.50;;;5.94;100.00;95579.06;5031352;28;20020;-58
2024/03/12 09:23:40;;;;;;;3.08;2.00;;;11.00;63.50;;;5.88;100.00;95585.25;5030966;28;20063;-57
2024/03/12 09:26:07;;;;;;;3.38;2.45;;;11.00;63.60;;;5.86;100.00;95583.88;5031691;28;20104;-53
2024/03/12 09:28:36;;;;;;;4.75;2.10;;;10.90;63.70;;;5.79;100.00;95586.66;5030775;28;20988;-53
2024/03/12 09:31:04;;;;;;;3.28;2.58;;;10.90;64.00;;;5.64;100.00;95589.00;5031302;28;20111;-57
2024/03/12 09:33:31;;;;;;;3.45;2.58;;;10.80;64.20;;;5.60;100.00;95590.50;5029810;28;20016;-57
2024/03/12 09:35:57;;;;;;;3.33;2.40;;;10.80;64.40;;;5.60;100.00;95598.44;5029678;28;20025;-57
2024/03/12 09:38:24;;;;;;;3.45;2.55;;;10.70;64.40;;;5.59;100.00;95587.06;5029206;28;20032;-57
2024/03/12 09:40:59;;;;;;;4.20;2.38;;;10.70;64.60;;;5.70;100.00;95593.34;5028167;28;20029;-57
2024/03/12 09:43:34;;;;;;;6.65;2.70;;;10.70;64.90;;;5.73;100.00;95598.19;5026955;28;20442;-57
2024/03/12 09:46:02;;;;;;;5.97;2.45;;;10.80;65.10;;;5.85;100.00;95601.59;5027452;28;20479;-57
2024/03/12 09:48:29;;;;;;;4.50;2.67;;;10.80;65.10;;;5.86;100.00;95603.22;5009581;28;20071;-59
2024/03/12 09:50:59;;;;;;;4.88;2.90;;;10.90;65.30;;;5.96;100.00;95607.94;5030470;28;20487;-54
2024/03/12 09:53:26;;;;;;;4.55;2.65;;;10.90;66.00;;;6.07;100.00;95608.94;5029907;28;20056;-57
2024/03/12 09:55:54;;;;;;;3.88;2.78;;;11.10;65.40;;;6.15;100.00;95603.28;5031049;28;20035;-57
2024/03/12 09:58:20;;;;;;;3.78;2.45;;;11.20;65.30;;;6.23;100.00;95611.63;5030181;28;20016;-56
2024/03/12 10:00:46;;;;;;;4.35;2.95;;;11.40;65.30;;;6.35;100.00;95610.78;5029766;28;20036;-57
2024/03/12 10:03:15;;;;;;;3.75;2.45;;;11.50;65.30;;;6.38;100.00;95615.59;5029743;28;20028;-57
2024/03/12 10:05:41;;;;;;;2.58;2.08;;;11.60;65.10;;;6.38;100.00;95611.09;5029504;28;20124;-57
2024/03/12 10:08:16;;;;;;;3.70;2.30;;;11.70;64.90;;;6.41;100.00;95615.13;5030325;28;20108;-56
2024/03/12 10:10:47;;;;;;;3.33;2.70;;;11.70;64.90;;;6.61;100.00;95612.03;5029799;28;20032;-57
2024/03/12 10:13:15;;;;;;;3.53;2.10;;;11.80;64.90;;;6.56;100.00;95610.09;5030556;28;20032;-57
2024/03/12 10:16:08;;;;;;;7.07;2.90;;;11.90;64.70;;;6.72;100.00;95616.47;5029933;28;20515;-56
2024/03/12 10:18:34;;;;;;;5.93;2.60;;;12.00;64.70;;;6.84;100.00;95614.56;5027131;28;20035;-56
2024/03/12 10:21:01;;;;;;;3.42;2.22;;;12.10;64.50;;;6.91;100.00;95614.38;5030980;28;20390;-54
2024/03/12 10:23:33;;;;;;;3.72;1.85;;;12.20;65.10;;;6.94;100.00;95624.50;5029859;28;20020;-56
2024/03/12 10:26:18;;;;;;;3.30;2.00;;;12.30;64.00;;;7.05;100.00;95620.16;5030960;28;20483;-55
2024/03/12 10:28:45;;;;;;;2.13;1.52;;;12.40;63.80;;;7.07;100.00;95618.09;5027868;28;20025;-57
2024/03/12 10:31:14;;;;;;;2.67;1.83;;;12.40;63.60;;;7.02;100.00;95629.41;5030681;28;20036;-56
2024/03/12 10:33:48;;;;;;;2.55;1.75;;;12.40;63.30;;;6.93;100.00;95623.72;5029895;28;20021;-58